createdAt,value
2017-11-21T00:00:06.267Z,95.90
2017-11-21T00:00:38.804Z,95.80
2017-11-21T00:01:11.333Z,96.00
2017-11-21T00:01:43.856Z,95.70
2017-11-21T00:02:17.171Z,95.70
2017-11-21T00:02:49.739Z,95.60
2017-11-21T00:03:22.264Z,95.70
2017-11-21T00:03:54.970Z,95.70
2017-11-21T00:04:27.518Z,95.90
2017-11-21T00:05:00.047Z,95.90
2017-11-21T00:05:32.573Z,95.90
2017-11-21T00:06:05.117Z,95.90
2017-11-21T00:06:37.645Z,96.00
2017-11-21T00:07:10.165Z,96.00
2017-11-21T00:07:42.692Z,96.00
2017-11-21T00:08:15.224Z,96.30
2017-11-21T00:08:47.749Z,96.00
2017-11-21T00:09:20.276Z,95.90
2017-11-21T00:09:52.807Z,95.70
2017-11-21T00:10:25.340Z,95.50
2017-11-21T00:10:57.869Z,95.50
2017-11-21T00:11:30.413Z,95.50
2017-11-21T00:12:02.920Z,95.60
2017-11-21T00:12:35.432Z,95.50
2017-11-21T00:13:08.251Z,95.20
2017-11-21T00:13:40.822Z,95.10
2017-11-21T00:14:13.394Z,95.00
2017-11-21T00:14:45.920Z,95.00
2017-11-21T00:15:18.460Z,95.00
2017-11-21T00:15:51.015Z,95.10
2017-11-21T00:16:23.572Z,95.20
2017-11-21T00:16:56.112Z,95.30
2017-11-21T00:17:28.640Z,95.30
2017-11-21T00:18:01.168Z,95.50
2017-11-21T00:18:33.713Z,95.30
2017-11-21T00:19:06.320Z,95.20
2017-11-21T00:19:38.829Z,95.30
2017-11-21T00:20:11.348Z,95.40
2017-11-21T00:20:44.642Z,95.60
2017-11-21T00:21:17.162Z,95.60
2017-11-21T00:21:49.695Z,95.70
2017-11-21T00:22:30.994Z,95.70
2017-11-21T00:23:03.524Z,95.80
2017-11-21T00:23:36.051Z,95.80
2017-11-21T00:24:08.581Z,95.90
2017-11-21T00:24:41.117Z,96.00
2017-11-21T00:25:13.657Z,96.00
2017-11-21T00:25:46.337Z,96.00
2017-11-21T00:26:18.863Z,96.20
2017-11-21T00:26:51.390Z,96.00
2017-11-21T00:27:23.929Z,96.10
2017-11-21T00:27:56.465Z,95.80
2017-11-21T00:28:29.760Z,95.60
2017-11-21T00:29:02.282Z,95.50
2017-11-21T00:29:34.799Z,95.70
2017-11-21T00:30:07.350Z,95.80
2017-11-21T00:30:39.874Z,95.90
2017-11-21T00:31:12.407Z,95.90
2017-11-21T00:31:44.942Z,96.00
2017-11-21T00:32:17.500Z,95.60
2017-11-21T00:32:50.092Z,95.40
2017-11-21T00:33:22.643Z,95.40
2017-11-21T00:33:55.164Z,95.60
2017-11-21T00:34:27.700Z,95.70
2017-11-21T00:35:00.229Z,95.70
2017-11-21T00:35:32.771Z,95.70
2017-11-21T00:36:06.285Z,95.90
2017-11-21T00:36:39.749Z,95.80
2017-11-21T00:37:12.897Z,95.80
2017-11-21T00:37:46.463Z,95.80
2017-11-21T00:38:18.986Z,95.80
2017-11-21T00:38:51.551Z,95.90
2017-11-21T00:39:24.141Z,96.00
2017-11-21T00:39:59.459Z,96.00
2017-11-21T00:40:31.988Z,96.10
2017-11-21T00:41:04.511Z,96.10
2017-11-21T00:41:37.031Z,96.10
2017-11-21T00:42:09.557Z,96.20
2017-11-21T00:46:23.952Z,95.40
2017-11-21T00:46:57.249Z,95.20
2017-11-21T00:47:29.779Z,95.10
2017-11-21T00:48:02.288Z,95.00
2017-11-21T00:48:34.842Z,95.00
2017-11-21T00:49:07.371Z,95.00
2017-11-21T00:49:40.693Z,95.10
2017-11-21T00:50:13.225Z,95.10
2017-11-21T00:50:46.532Z,95.40
2017-11-21T00:51:19.114Z,95.40
2017-11-21T00:51:51.665Z,95.50
2017-11-21T00:52:24.186Z,95.60
2017-11-21T00:52:56.713Z,95.60
2017-11-21T00:53:29.241Z,95.60
2017-11-21T00:54:01.752Z,95.70
2017-11-21T00:54:34.299Z,95.80
2017-11-21T00:55:06.845Z,95.70
2017-11-21T01:10:26.109Z,95.80
2017-11-21T01:10:59.351Z,95.80
2017-11-21T01:11:31.893Z,95.60
2017-11-21T01:12:04.413Z,95.60
2017-11-21T01:12:36.948Z,95.50
2017-11-21T01:13:09.483Z,95.50
2017-11-21T01:13:42.008Z,95.40
2017-11-21T01:41:28.206Z,96.00
2017-11-21T01:42:00.740Z,96.00
2017-11-21T01:42:33.274Z,96.00
2017-11-21T01:43:05.786Z,96.10
2017-11-21T01:43:38.299Z,96.30
2017-11-21T01:44:10.818Z,96.40
2017-11-21T01:44:43.332Z,96.40
2017-11-21T01:45:15.853Z,96.50
2017-11-21T01:45:48.369Z,96.60
2017-11-21T01:46:20.906Z,96.60
2017-11-21T01:46:53.469Z,96.60
2017-11-21T01:47:26.093Z,96.60
2017-11-21T01:47:58.657Z,96.50
2017-11-21T01:48:31.183Z,96.10
2017-11-21T01:49:03.713Z,96.20
2017-11-21T01:49:36.245Z,96.20
2017-11-21T01:50:08.795Z,96.30
2017-11-21T01:50:41.493Z,96.40
2017-11-21T01:51:14.032Z,96.40
2017-11-21T01:51:46.572Z,96.30
2017-11-21T01:52:19.129Z,96.30
2017-11-21T01:52:51.660Z,96.30
2017-11-21T01:53:25.149Z,96.30
2017-11-21T01:53:58.704Z,96.20
2017-11-21T01:54:31.422Z,96.20
2017-11-21T01:55:03.943Z,96.00
2017-11-21T01:55:36.466Z,96.00
2017-11-21T01:56:09.738Z,96.30
2017-11-21T01:56:42.284Z,96.00
2017-11-21T01:57:14.817Z,96.00
2017-11-21T01:57:47.476Z,96.00
2017-11-21T01:58:20.040Z,96.00
2017-11-21T01:58:52.707Z,96.00
2017-11-21T01:59:25.246Z,96.00
2017-11-21T01:59:57.777Z,96.00
2017-11-21T02:00:30.303Z,96.00
2017-11-21T02:01:02.843Z,95.90
2017-11-21T02:01:35.343Z,95.90
2017-11-21T02:02:07.871Z,96.00
2017-11-21T02:02:40.396Z,95.90
2017-11-21T02:03:12.935Z,95.70
2017-11-21T02:03:45.452Z,95.70
2017-11-21T02:04:17.984Z,95.90
2017-11-21T02:04:50.491Z,95.90
2017-11-21T02:05:23.008Z,95.90
2017-11-21T02:05:55.517Z,95.90
2017-11-21T02:06:28.064Z,96.00
2017-11-21T02:07:01.365Z,95.90
2017-11-21T02:07:33.872Z,95.80
2017-11-21T02:08:06.380Z,95.80
2017-11-21T02:08:39.677Z,96.00
2017-11-21T02:09:12.209Z,95.90
2017-11-21T02:09:44.747Z,96.00
2017-11-21T02:10:17.281Z,96.00
2017-11-21T02:10:49.831Z,96.00
2017-11-21T02:11:22.340Z,96.10
2017-11-21T02:11:55.654Z,96.20
2017-11-21T02:12:28.185Z,96.10
2017-11-21T02:13:00.715Z,96.10
2017-11-21T02:13:33.256Z,96.10
2017-11-21T02:14:05.792Z,96.10
2017-11-21T02:14:38.319Z,96.10
2017-11-21T02:15:10.852Z,96.20
2017-11-21T02:15:43.366Z,96.20
2017-11-21T02:16:15.879Z,96.10
2017-11-21T02:16:48.421Z,96.10
2017-11-21T02:17:21.729Z,95.60
2017-11-21T02:17:54.248Z,95.60
2017-11-21T02:18:26.773Z,95.50
2017-11-21T02:18:59.285Z,95.60
2017-11-21T02:19:31.811Z,95.70
2017-11-21T02:20:04.343Z,95.70
2017-11-21T02:20:36.878Z,95.80
2017-11-21T02:21:10.459Z,96.00
2017-11-21T02:21:43.164Z,96.00
2017-11-21T02:22:16.569Z,96.00
2017-11-21T02:22:49.094Z,96.10
2017-11-21T02:23:21.622Z,96.10
2017-11-21T02:23:54.275Z,95.90
2017-11-21T02:24:26.971Z,96.00
2017-11-21T02:25:00.300Z,95.80
2017-11-21T02:25:32.873Z,95.80
2017-11-21T02:26:07.320Z,96.00
2017-11-21T02:26:41.167Z,96.10
2017-11-21T02:27:14.464Z,96.10
2017-11-21T02:27:46.998Z,96.10
2017-11-21T02:28:21.998Z,96.20
2017-11-21T02:28:55.425Z,96.10
2017-11-21T02:29:28.381Z,96.10
2017-11-21T02:30:00.925Z,96.10
2017-11-21T02:30:34.239Z,96.00
2017-11-21T02:31:06.773Z,96.00
2017-11-21T02:31:39.310Z,96.10
2017-11-21T02:32:11.863Z,96.10
2017-11-21T02:32:44.389Z,96.20
2017-11-21T02:33:16.957Z,96.30
2017-11-21T02:33:49.472Z,96.30
2017-11-21T02:34:22.785Z,96.30
2017-11-21T02:34:55.298Z,96.30
2017-11-21T02:35:27.842Z,96.20
2017-11-21T02:36:00.579Z,96.10
2017-11-21T02:36:33.092Z,95.90
2017-11-21T02:37:05.622Z,95.70
2017-11-21T02:37:38.295Z,95.80
2017-11-21T02:38:10.812Z,96.00
2017-11-21T02:38:43.344Z,96.10
2017-11-21T02:39:15.860Z,96.10
2017-11-21T02:39:48.420Z,96.10
2017-11-21T02:40:20.939Z,96.10
2017-11-21T02:40:53.494Z,96.10
2017-11-21T02:41:26.069Z,96.10
2017-11-21T02:41:58.621Z,96.10
2017-11-21T02:42:31.193Z,96.20
2017-11-21T02:43:03.715Z,96.30
2017-11-21T02:43:36.244Z,96.30
2017-11-21T02:44:09.529Z,96.40
2017-11-21T02:44:42.818Z,96.40
2017-11-21T02:45:15.347Z,96.30
2017-11-21T02:45:47.869Z,96.40
2017-11-21T02:46:20.561Z,96.40
2017-11-21T02:46:53.127Z,96.40
2017-11-21T02:47:25.657Z,96.40
2017-11-21T02:47:59.035Z,96.30
2017-11-21T02:48:31.559Z,96.20
2017-11-21T02:49:04.106Z,96.10
2017-11-21T02:49:36.629Z,96.00
2017-11-21T02:50:09.155Z,96.10
2017-11-21T02:50:42.478Z,96.10
2017-11-21T02:51:15.036Z,96.10
2017-11-21T02:51:47.590Z,95.90
2017-11-21T02:52:20.273Z,95.90
2017-11-21T02:52:52.791Z,95.90
2017-11-21T02:53:25.895Z,96.10
2017-11-21T02:53:58.423Z,96.10
2017-11-21T02:54:30.957Z,96.20
2017-11-21T02:55:03.481Z,96.10
2017-11-21T02:55:35.995Z,95.80
2017-11-21T02:56:08.503Z,95.80
2017-11-21T02:56:41.044Z,95.90
2017-11-21T02:57:13.587Z,95.90
2017-11-21T02:57:46.121Z,95.90
2017-11-21T02:58:18.709Z,95.90
2017-11-21T02:58:52.384Z,95.90
2017-11-21T02:59:24.908Z,95.90
2017-11-21T02:59:58.229Z,96.10
2017-11-21T03:00:30.753Z,96.00
2017-11-21T03:01:03.271Z,96.00
2017-11-21T03:01:36.480Z,96.00
2017-11-21T03:02:09.033Z,96.00
2017-11-21T03:02:41.580Z,96.00
2017-11-21T03:03:14.144Z,96.10
2017-11-21T03:03:46.675Z,96.10
2017-11-21T03:04:19.224Z,96.10
2017-11-21T03:04:51.765Z,96.10
2017-11-21T03:05:25.065Z,96.00
2017-11-21T03:05:57.730Z,96.00
2017-11-21T03:06:30.277Z,96.00
2017-11-21T03:07:02.877Z,96.00
2017-11-21T03:07:35.485Z,96.10
2017-11-21T03:08:08.099Z,96.10
2017-11-21T03:08:40.665Z,96.10
2017-11-21T03:09:13.189Z,96.10
2017-11-21T03:09:45.723Z,96.10
2017-11-21T03:10:18.321Z,96.10
2017-11-21T03:10:50.841Z,96.20
2017-11-21T03:11:23.397Z,96.20
2017-11-21T03:11:58.928Z,96.20
2017-11-21T03:12:31.590Z,96.20
2017-11-21T03:13:04.981Z,96.10
2017-11-21T03:13:37.536Z,96.10
2017-11-21T03:14:10.087Z,96.20
2017-11-21T03:14:42.650Z,96.30
2017-11-21T03:15:15.180Z,96.40
2017-11-21T03:15:47.696Z,96.40
2017-11-21T03:16:20.216Z,96.40
2017-11-21T03:16:53.529Z,96.30
2017-11-21T03:17:26.059Z,96.30
2017-11-21T03:17:58.603Z,96.40
2017-11-21T03:18:31.338Z,96.30
2017-11-21T03:19:03.876Z,96.40
2017-11-21T03:19:36.987Z,96.50
2017-11-21T03:20:21.365Z,96.20
2017-11-21T03:21:05.577Z,96.30
2017-11-21T03:21:49.872Z,96.40
2017-11-21T03:22:34.281Z,96.40
2017-11-21T03:23:18.559Z,96.20
2017-11-21T03:24:02.680Z,96.10
2017-11-21T03:24:47.064Z,96.10
2017-11-21T03:25:31.301Z,96.00
2017-11-21T03:26:15.699Z,96.10
2017-11-21T03:26:48.224Z,96.20
2017-11-21T03:27:32.408Z,96.40
2017-11-21T03:28:04.933Z,96.40
2017-11-21T03:28:39.140Z,96.40
2017-11-21T03:29:11.667Z,96.40
2017-11-21T03:29:44.185Z,96.40
2017-11-21T03:30:18.253Z,96.30
2017-11-21T03:30:50.794Z,96.30
2017-11-21T03:31:23.317Z,96.10
2017-11-21T03:31:55.874Z,96.10
2017-11-21T03:32:29.175Z,96.00
2017-11-21T03:33:01.697Z,96.00
2017-11-21T03:33:34.223Z,96.00
2017-11-21T03:34:06.762Z,96.10
2017-11-21T03:34:39.277Z,96.10
2017-11-21T03:35:11.810Z,96.10
2017-11-21T03:35:44.345Z,96.20
2017-11-21T03:36:16.869Z,96.30
2017-11-21T03:36:49.398Z,96.30
2017-11-21T03:37:21.933Z,96.40
2017-11-21T03:37:54.454Z,96.50
2017-11-21T03:38:26.976Z,96.60
2017-11-21T03:38:59.501Z,96.60
2017-11-21T03:39:32.043Z,96.60
2017-11-21T03:40:05.348Z,96.50
2017-11-21T03:40:38.673Z,96.60
2017-11-21T03:41:11.208Z,96.60
2017-11-21T03:41:43.733Z,96.50
2017-11-21T03:42:16.271Z,96.50
2017-11-21T03:42:48.828Z,96.50
2017-11-21T03:43:21.352Z,96.50
2017-11-21T03:43:54.637Z,96.60
2017-11-21T03:44:27.164Z,96.60
2017-11-21T03:44:59.696Z,96.60
2017-11-21T03:45:32.260Z,96.60
2017-11-21T03:46:04.823Z,96.50
2017-11-21T03:46:37.386Z,96.50
2017-11-21T03:47:09.899Z,96.50
2017-11-21T03:47:42.423Z,96.50
2017-11-21T03:48:14.968Z,96.60
2017-11-21T03:48:47.502Z,96.60
2017-11-21T03:49:20.019Z,96.60
2017-11-21T03:49:52.559Z,96.70
2017-11-21T03:50:25.090Z,96.70
2017-11-21T03:50:57.615Z,96.70
2017-11-21T03:51:30.150Z,96.80
2017-11-21T03:52:02.897Z,96.80
2017-11-21T03:52:36.375Z,96.70
2017-11-21T03:53:12.529Z,96.60
2017-11-21T03:53:45.045Z,96.60
2017-11-21T03:54:17.595Z,96.60
2017-11-21T03:54:51.070Z,96.60
2017-11-21T03:55:23.636Z,96.40
2017-11-21T03:55:56.179Z,96.40
2017-11-21T03:56:29.461Z,96.60
2017-11-21T03:57:03.000Z,96.20
2017-11-21T03:57:35.632Z,96.30
2017-11-21T03:58:08.172Z,96.30
2017-11-21T03:58:41.456Z,96.20
2017-11-21T03:59:14.756Z,96.30
2017-11-21T03:59:47.295Z,96.30
2017-11-21T04:00:19.831Z,96.20
2017-11-21T04:00:54.134Z,96.10
2017-11-21T04:01:26.949Z,96.20
2017-11-21T04:01:59.525Z,96.20
2017-11-21T04:02:32.083Z,96.40
2017-11-21T04:03:04.601Z,96.30
2017-11-21T04:03:37.116Z,96.30
2017-11-21T04:04:09.683Z,96.30
2017-11-21T04:04:42.215Z,96.40
2017-11-21T04:05:14.731Z,96.50
2017-11-21T04:05:47.256Z,96.50
2017-11-21T04:06:19.770Z,96.40
2017-11-21T04:06:52.303Z,96.30
2017-11-21T04:07:24.828Z,96.20
2017-11-21T04:07:58.149Z,96.10
2017-11-21T04:08:30.674Z,96.10
2017-11-21T04:09:03.963Z,96.30
2017-11-21T04:09:36.486Z,96.30
2017-11-21T04:10:09.001Z,96.30
2017-11-21T04:10:41.537Z,96.30
2017-11-21T04:11:14.066Z,96.20
2017-11-21T04:11:46.584Z,96.20
2017-11-21T04:12:19.098Z,96.30
2017-11-21T04:12:51.620Z,96.30
2017-11-21T04:13:24.173Z,96.20
2017-11-21T04:13:56.706Z,96.10
2017-11-21T04:14:29.241Z,96.20
2017-11-21T04:15:01.759Z,96.30
2017-11-21T04:15:34.285Z,96.30
2017-11-21T04:16:06.833Z,96.20
2017-11-21T04:16:39.354Z,96.10
2017-11-21T04:17:11.905Z,96.10
2017-11-21T04:17:45.197Z,96.30
2017-11-21T04:18:17.720Z,96.30
2017-11-21T04:18:50.249Z,96.30
2017-11-21T04:19:22.776Z,96.10
2017-11-21T04:19:56.073Z,96.10
2017-11-21T04:20:28.601Z,96.10
2017-11-21T04:21:01.224Z,96.10
2017-11-21T04:21:33.832Z,96.20
2017-11-21T04:22:06.553Z,96.20
2017-11-21T04:22:39.202Z,96.30
2017-11-21T04:23:11.722Z,96.40
2017-11-21T04:23:44.262Z,96.50
2017-11-21T04:24:16.804Z,96.40
2017-11-21T04:24:49.343Z,96.30
2017-11-21T04:25:21.886Z,96.30
2017-11-21T04:25:54.403Z,96.40
2017-11-21T04:26:26.953Z,96.40
2017-11-21T04:26:59.501Z,96.40
2017-11-21T04:27:32.025Z,96.50
2017-11-21T04:28:04.544Z,96.40
2017-11-21T04:28:37.053Z,96.40
2017-11-21T04:29:09.568Z,96.30
2017-11-21T04:29:42.166Z,96.40
2017-11-21T04:30:14.704Z,96.50
2017-11-21T04:30:47.221Z,96.50
2017-11-21T04:31:19.738Z,96.50
2017-11-21T04:31:52.268Z,96.50
2017-11-21T04:32:24.882Z,96.60
2017-11-21T04:32:57.530Z,96.70
2017-11-21T04:33:30.086Z,96.80
2017-11-21T04:34:02.621Z,96.80
2017-11-21T04:34:35.161Z,96.80
2017-11-21T04:35:07.695Z,96.60
2017-11-21T04:35:40.201Z,96.50
2017-11-21T04:36:12.735Z,96.50
2017-11-21T04:36:45.251Z,96.60
2017-11-21T04:37:17.884Z,96.80
2017-11-21T04:37:50.424Z,96.80
2017-11-21T04:38:22.957Z,96.80
2017-11-21T04:38:55.471Z,96.80
2017-11-21T04:39:28.001Z,96.50
2017-11-21T04:40:00.531Z,96.40
2017-11-21T04:40:33.056Z,96.30
2017-11-21T04:41:05.567Z,96.20
2017-11-21T04:41:38.087Z,96.20
2017-11-21T04:42:10.594Z,96.30
2017-11-21T04:42:43.121Z,96.40
2017-11-21T04:43:16.544Z,96.30
2017-11-21T04:43:49.061Z,96.30
2017-11-21T04:44:21.590Z,96.40
2017-11-21T04:44:54.110Z,96.40
2017-11-21T04:45:26.675Z,96.30
2017-11-21T04:45:59.237Z,96.30
2017-11-21T04:46:31.776Z,96.40
2017-11-21T04:47:04.319Z,96.30
2017-11-21T04:47:36.841Z,96.40
2017-11-21T04:48:09.356Z,96.40
2017-11-21T04:48:41.915Z,96.30
2017-11-21T04:49:14.432Z,96.10
2017-11-21T04:49:46.952Z,96.10
2017-11-21T04:50:19.484Z,96.20
2017-11-21T04:50:52.004Z,96.20
2017-11-21T04:51:24.535Z,96.30
2017-11-21T04:51:57.067Z,96.50
2017-11-21T04:52:29.823Z,96.60
2017-11-21T04:53:02.625Z,96.50
2017-11-21T04:53:35.924Z,96.30
2017-11-21T04:54:08.452Z,96.20
2017-11-21T04:54:40.973Z,96.30
2017-11-21T04:55:13.513Z,96.30
2017-11-21T04:55:46.044Z,96.30
2017-11-21T04:56:18.574Z,96.50
2017-11-21T04:56:51.133Z,96.30
2017-11-21T04:57:23.652Z,96.10
2017-11-21T04:57:56.180Z,96.00
2017-11-21T04:58:28.707Z,95.90
2017-11-21T04:59:02.132Z,95.70
2017-11-21T04:59:34.669Z,95.70
2017-11-21T05:00:07.184Z,95.80
2017-11-21T05:00:39.728Z,95.90
2017-11-21T05:01:12.242Z,95.90
2017-11-21T05:01:45.535Z,96.00
2017-11-21T05:02:18.842Z,95.90
2017-11-21T05:02:51.379Z,95.90
2017-11-21T05:03:24.721Z,96.10
2017-11-21T05:03:57.253Z,96.10
2017-11-21T05:04:29.809Z,96.20
2017-11-21T05:05:02.335Z,96.30
2017-11-21T05:05:34.856Z,96.30
2017-11-21T05:06:07.398Z,96.30
2017-11-21T05:06:39.937Z,96.30
2017-11-21T05:07:13.232Z,96.30
2017-11-21T05:07:45.767Z,96.30
2017-11-21T05:08:18.295Z,96.20
2017-11-21T05:08:50.816Z,96.20
2017-11-21T05:09:24.130Z,96.10
2017-11-21T05:09:56.657Z,96.10
2017-11-21T05:10:29.192Z,96.10
2017-11-21T05:11:01.724Z,96.10
2017-11-21T05:11:34.243Z,96.20
2017-11-21T05:12:07.528Z,96.30
2017-11-21T05:12:40.816Z,96.30
2017-11-21T05:13:14.113Z,96.50
2017-11-21T05:13:46.635Z,96.40
2017-11-21T05:14:19.168Z,96.40
2017-11-21T05:14:51.701Z,96.40
2017-11-21T05:15:24.236Z,96.40
2017-11-21T05:15:56.837Z,96.40
2017-11-21T05:16:29.356Z,96.60
2017-11-21T05:17:01.913Z,96.60
2017-11-21T05:17:34.529Z,96.50
2017-11-21T05:18:07.038Z,96.80
2017-11-21T05:18:39.594Z,96.60
2017-11-21T05:19:12.117Z,96.60
2017-11-21T05:19:44.678Z,96.70
2017-11-21T05:20:17.202Z,96.60
2017-11-21T05:20:49.724Z,96.60
2017-11-21T05:21:22.268Z,96.50
2017-11-21T05:21:54.805Z,96.40
2017-11-21T05:22:28.092Z,96.40
2017-11-21T05:23:00.783Z,96.30
2017-11-21T05:23:33.288Z,96.30
2017-11-21T05:24:05.839Z,96.40
2017-11-21T05:24:38.480Z,96.40
2017-11-21T05:25:11.013Z,96.50
2017-11-21T05:25:43.536Z,96.50
2017-11-21T05:26:16.063Z,96.50
2017-11-21T05:26:48.593Z,96.50
2017-11-21T05:27:21.133Z,96.50
2017-11-21T05:27:53.725Z,96.60
2017-11-21T05:28:26.257Z,96.60
2017-11-21T05:28:58.779Z,96.70
2017-11-21T05:29:31.336Z,96.70
2017-11-21T05:30:03.856Z,96.80
2017-11-21T05:30:36.381Z,96.80
2017-11-21T05:31:08.929Z,96.80
2017-11-21T05:31:41.469Z,96.80
2017-11-21T05:32:13.986Z,96.80
2017-11-21T05:32:58.326Z,96.70
2017-11-21T05:33:39.510Z,96.80
2017-11-21T05:34:12.091Z,96.80
2017-11-21T05:34:44.634Z,96.90
2017-11-21T05:35:17.165Z,96.90
2017-11-21T05:35:49.689Z,96.80
2017-11-21T05:36:22.209Z,96.60
2017-11-21T05:36:54.815Z,96.50
2017-11-21T05:37:27.442Z,96.50
2017-11-21T05:37:59.969Z,96.60
2017-11-21T05:38:32.547Z,96.60
2017-11-21T05:39:05.084Z,96.60
2017-11-21T05:39:37.636Z,96.60
2017-11-21T05:40:10.954Z,96.80
2017-11-21T05:40:43.491Z,96.80
2017-11-21T05:41:16.833Z,96.90
2017-11-21T05:41:49.378Z,96.80
2017-11-21T05:42:21.906Z,96.80
2017-11-21T05:42:55.196Z,96.80
2017-11-21T05:43:27.725Z,96.80
2017-11-21T05:44:00.380Z,96.80
2017-11-21T05:44:32.892Z,96.80
2017-11-21T05:45:05.435Z,96.80
2017-11-21T05:45:38.758Z,96.70
2017-11-21T05:46:11.297Z,96.70
2017-11-21T05:46:43.844Z,96.80
2017-11-21T05:47:17.132Z,96.90
2017-11-21T05:47:50.416Z,96.90
2017-11-21T05:48:23.024Z,97.00
2017-11-21T05:48:55.547Z,97.00
2017-11-21T05:49:28.847Z,97.00
2017-11-21T05:50:01.389Z,97.00
2017-11-21T05:50:33.949Z,97.10
2017-11-21T05:51:07.254Z,97.30
2017-11-21T05:51:39.797Z,97.30
2017-11-21T05:52:12.345Z,97.50
2017-11-21T05:52:44.904Z,97.40
2017-11-21T05:53:17.433Z,97.40
2017-11-21T05:53:49.968Z,97.50
2017-11-21T05:54:22.527Z,97.50
2017-11-21T05:54:55.068Z,97.50
2017-11-21T05:55:28.360Z,97.50
2017-11-21T05:56:01.665Z,97.50
2017-11-21T05:56:34.226Z,97.50
2017-11-21T05:57:06.748Z,97.60
2017-11-21T05:57:39.263Z,97.60
2017-11-21T05:58:11.780Z,97.90
2017-11-21T05:58:44.311Z,97.60
2017-11-21T05:59:16.852Z,97.50
2017-11-21T05:59:49.392Z,97.50
2017-11-21T06:00:22.003Z,97.50
2017-11-21T06:00:54.748Z,97.30
2017-11-21T06:01:27.304Z,97.20
2017-11-21T06:01:59.866Z,97.20
2017-11-21T06:02:32.416Z,97.40
2017-11-21T06:03:05.023Z,97.20
2017-11-21T06:03:37.627Z,97.20
2017-11-21T06:04:10.222Z,97.20
2017-11-21T06:04:42.739Z,97.20
2017-11-21T06:05:15.305Z,97.20
2017-11-21T06:05:47.928Z,97.30
2017-11-21T06:06:20.467Z,97.30
2017-11-21T06:06:53.071Z,97.30
2017-11-21T06:07:25.703Z,97.30
2017-11-21T06:07:58.376Z,97.40
2017-11-21T06:08:30.955Z,97.50
2017-11-21T06:09:03.492Z,97.30
2017-11-21T06:09:36.020Z,97.10
2017-11-21T06:10:08.544Z,97.00
2017-11-21T06:10:41.088Z,96.90
2017-11-21T06:11:13.689Z,96.90
2017-11-21T06:11:46.222Z,96.80
2017-11-21T06:12:18.740Z,96.60
2017-11-21T06:12:51.449Z,96.50
2017-11-21T06:13:24.020Z,96.50
2017-11-21T06:13:56.691Z,96.50
2017-11-21T06:14:29.485Z,96.60
2017-11-21T06:15:02.052Z,96.70
2017-11-21T06:15:34.629Z,96.80
2017-11-21T06:16:07.187Z,96.80
2017-11-21T06:16:39.760Z,96.80
2017-11-21T06:17:12.368Z,96.80
2017-11-21T06:17:44.902Z,96.80
2017-11-21T06:18:18.261Z,97.00
2017-11-21T06:18:50.784Z,96.90
2017-11-21T06:19:23.452Z,97.00
2017-11-21T06:19:56.033Z,97.10
2017-11-21T06:20:28.644Z,97.20
2017-11-21T06:21:01.425Z,97.20
2017-11-21T06:21:34.797Z,97.40
2017-11-21T06:22:17.584Z,97.40
2017-11-21T06:22:51.430Z,97.40
2017-11-21T06:23:33.324Z,97.30
2017-11-21T06:24:15.001Z,97.30
2017-11-21T06:24:51.101Z,97.20
2017-11-21T06:25:24.733Z,97.00
2017-11-21T06:26:04.301Z,97.10
2017-11-21T06:26:38.127Z,97.00
2017-11-21T06:27:15.115Z,97.20
2017-11-21T06:27:48.414Z,97.10
2017-11-21T06:28:27.480Z,97.10
2017-11-21T06:29:01.757Z,97.10
2017-11-21T06:29:34.314Z,97.10
2017-11-21T06:30:08.140Z,97.10
2017-11-21T06:30:43.350Z,97.10
2017-11-21T06:31:20.577Z,97.20
2017-11-21T06:31:56.392Z,97.30
2017-11-21T06:32:48.550Z,97.30
2017-11-21T06:33:31.416Z,97.30
2017-11-21T06:34:04.745Z,97.20
2017-11-21T06:34:40.278Z,97.20
2017-11-21T06:35:53.243Z,97.20
2017-11-21T06:36:26.296Z,97.30
2017-11-21T06:37:02.918Z,97.40
2017-11-21T06:38:34.528Z,97.30
2017-11-21T06:39:14.132Z,97.40
2017-11-21T06:39:50.158Z,97.50
2017-11-21T06:40:27.299Z,97.50
2017-11-21T06:41:11.492Z,97.50
2017-11-21T06:41:46.086Z,97.40
2017-11-21T06:42:20.316Z,97.50
2017-11-21T06:42:54.633Z,97.50
2017-11-21T06:43:44.394Z,97.60
2017-11-21T06:44:28.542Z,97.70
2017-11-21T06:45:12.525Z,97.70
2017-11-21T06:45:45.043Z,97.80
2017-11-21T06:46:18.819Z,97.80
2017-11-21T06:46:53.628Z,97.90
2017-11-21T06:47:42.715Z,98.00
2017-11-21T06:48:21.090Z,98.00
2017-11-21T06:48:56.914Z,98.40
2017-11-21T06:49:38.021Z,98.10
2017-11-21T06:50:15.364Z,98.00
2017-11-21T06:50:52.701Z,98.10
2017-11-21T06:51:29.857Z,98.10
2017-11-21T06:52:09.791Z,98.10
2017-11-21T06:52:45.750Z,98.10
2017-11-21T06:53:18.887Z,97.90
2017-11-21T06:53:54.255Z,97.90
2017-11-21T06:54:33.012Z,98.00
2017-11-21T06:55:05.614Z,98.00
2017-11-21T06:55:41.685Z,97.90
2017-11-21T06:56:19.970Z,97.70
2017-11-21T06:57:02.173Z,97.50
2017-11-21T06:57:39.368Z,97.50
2017-11-21T06:58:29.736Z,97.60
2017-11-21T06:59:04.307Z,97.60
2017-11-21T06:59:54.040Z,97.70
2017-11-21T07:00:27.632Z,97.70
2017-11-21T07:01:00.998Z,97.60
2017-11-21T07:01:33.570Z,97.60
2017-11-21T07:02:06.348Z,97.70
2017-11-21T07:02:38.896Z,97.80
2017-11-21T07:03:11.421Z,97.90
2017-11-21T07:03:43.943Z,97.90
2017-11-21T07:04:17.245Z,98.10
2017-11-21T07:04:49.803Z,98.10
2017-11-21T07:05:22.322Z,98.10
2017-11-21T07:05:54.863Z,98.10
2017-11-21T07:06:27.435Z,98.10
2017-11-21T07:06:59.957Z,98.10
2017-11-21T07:07:32.486Z,98.10
2017-11-21T07:08:05.826Z,98.20
2017-11-21T07:08:38.429Z,98.20
2017-11-21T07:09:10.968Z,98.20
2017-11-21T07:09:43.490Z,98.30
2017-11-21T07:10:16.052Z,98.40
2017-11-21T07:10:48.580Z,98.40
2017-11-21T07:11:21.122Z,98.40
2017-11-21T07:11:53.653Z,98.40
2017-11-21T07:12:26.180Z,98.40
2017-11-21T07:12:58.719Z,98.40
2017-11-21T07:13:31.272Z,98.40
2017-11-21T07:14:03.793Z,98.40
2017-11-21T07:14:36.320Z,98.30
2017-11-21T07:15:08.861Z,98.40
2017-11-21T07:15:41.405Z,98.40
2017-11-21T07:16:13.932Z,98.40
2017-11-21T07:16:46.480Z,98.40
2017-11-21T07:17:19.097Z,98.40
2017-11-21T07:17:51.628Z,98.50
2017-11-21T07:18:24.173Z,98.50
2017-11-21T07:18:56.784Z,98.50
2017-11-21T07:19:29.324Z,98.50
2017-11-21T07:20:01.888Z,98.50
2017-11-21T07:20:34.436Z,98.40
2017-11-21T07:21:06.949Z,98.50
2017-11-21T07:21:39.496Z,98.40
2017-11-21T07:22:12.032Z,98.40
2017-11-21T07:22:44.587Z,98.50
2017-11-21T07:23:17.368Z,98.50
2017-11-21T07:23:50.005Z,98.40
2017-11-21T07:24:22.537Z,98.30
2017-11-21T07:24:55.103Z,98.30
2017-11-21T07:25:27.649Z,98.30
2017-11-21T07:26:00.228Z,98.30
2017-11-21T07:26:32.756Z,98.40
2017-11-21T07:27:05.273Z,98.40
2017-11-21T07:27:37.820Z,98.50
2017-11-21T07:28:10.424Z,98.50
2017-11-21T07:28:42.935Z,98.50
2017-11-21T07:29:15.492Z,98.50
2017-11-21T07:29:48.032Z,98.50
2017-11-21T07:30:20.683Z,98.60
2017-11-21T07:30:53.190Z,98.60
2017-11-21T07:31:25.776Z,98.60
2017-11-21T07:31:58.304Z,98.60
2017-11-21T07:32:30.840Z,98.60
2017-11-21T07:33:03.378Z,98.60
2017-11-21T07:33:36.180Z,98.60
2017-11-21T07:34:09.479Z,98.50
2017-11-21T07:34:42.172Z,98.40
2017-11-21T07:35:14.739Z,98.40
2017-11-21T07:35:47.301Z,98.40
2017-11-21T07:36:19.965Z,98.40
2017-11-21T07:36:52.527Z,98.50
2017-11-21T07:37:25.133Z,98.50
2017-11-21T07:37:57.684Z,98.50
2017-11-21T07:38:30.263Z,98.50
2017-11-21T07:39:02.829Z,98.50
2017-11-21T07:39:35.353Z,98.40
2017-11-21T07:40:07.892Z,98.20
2017-11-21T07:40:41.173Z,98.30
2017-11-21T07:41:13.850Z,98.30
2017-11-21T07:41:46.404Z,98.40
2017-11-21T07:42:19.708Z,98.30
2017-11-21T07:42:52.311Z,98.30
2017-11-21T07:43:24.901Z,98.30
2017-11-21T07:43:57.911Z,98.30
2017-11-21T07:44:30.485Z,98.30
2017-11-21T07:45:03.029Z,98.20
2017-11-21T07:45:35.565Z,98.30
2017-11-21T07:46:08.112Z,98.30
2017-11-21T07:46:40.724Z,98.30
2017-11-21T07:47:13.257Z,98.20
2017-11-21T07:47:45.791Z,98.20
2017-11-21T07:48:18.349Z,98.20
2017-11-21T07:48:50.922Z,98.30
2017-11-21T07:49:24.500Z,98.20
2017-11-21T07:49:57.020Z,98.10
2017-11-21T07:50:29.659Z,98.10
2017-11-21T07:51:02.241Z,98.00
2017-11-21T07:51:35.580Z,98.10
2017-11-21T07:52:08.099Z,98.10
2017-11-21T07:52:40.624Z,98.10
2017-11-21T07:53:13.248Z,98.10
2017-11-21T07:53:45.792Z,98.10
2017-11-21T07:54:18.425Z,98.10
2017-11-21T07:54:51.028Z,98.10
2017-11-21T07:55:23.548Z,98.00